Time;durP1;ratioP1;P1;durP2;ratioP2;P2;SDS_P1;SDS_P2;PMS_P1;PMS_P2;Temp;Humidity;BMP_temperature;BMP_pressure;BME280_temperature;BME280_humidity;BME280_pressure;Samples;Min_cycle;Max_cycle;Signal;HPM_P1;HPM_P2
2023/08/08 00:01:00;;;;;;;1.58;1.35;;;14.80;69.50;;;16.28;51.39;97744.56;5032476;28;20041;-57
2023/08/08 00:03:28;;;;;;;2.63;1.50;;;14.80;69.60;;;16.32;51.16;97745.00;5032918;28;20041;-57
2023/08/08 00:05:56;;;;;;;1.90;1.65;;;14.80;69.30;;;16.32;51.33;97748.56;5014814;28;20398;-57
2023/08/08 00:08:23;;;;;;;2.85;1.20;;;14.80;69.40;;;16.26;51.53;97741.25;5031915;28;20060;-56
2023/08/08 00:10:51;;;;;;;1.55;1.30;;;14.80;69.70;;;16.29;51.49;97746.25;5032423;28;20046;-56
2023/08/08 00:13:19;;;;;;;3.10;1.10;;;14.80;69.50;;;16.30;51.52;97747.06;5032302;28;20042;-55
2023/08/08 00:15:46;;;;;;;2.20;1.30;;;14.80;69.70;;;16.29;51.53;97746.25;5031115;28;20048;-54
2023/08/08 00:18:14;;;;;;;1.98;1.00;;;14.80;69.70;;;16.33;51.69;97755.56;5032118;28;20037;-57
2023/08/08 00:20:42;;;;;;;1.63;1.38;;;14.80;69.70;;;16.32;51.42;97753.94;5031995;28;20041;-57
2023/08/08 00:23:09;;;;;;;2.53;1.42;;;14.80;69.80;;;16.31;51.56;97757.63;5030255;28;20049;-54
2023/08/08 00:25:37;;;;;;;2.22;1.30;;;14.80;69.80;;;16.36;51.68;97756.22;5031268;28;20424;-56
2023/08/08 00:28:05;;;;;;;2.25;1.63;;;14.90;69.80;;;16.36;51.48;97756.22;5031778;28;20053;-55
2023/08/08 00:30:32;;;;;;;2.58;1.58;;;14.90;69.70;;;16.38;51.75;97748.78;5030521;28;20065;-55
2023/08/08 00:33:00;;;;;;;4.80;1.88;;;14.90;69.80;;;16.37;51.80;97750.66;5031076;28;20049;-56
2023/08/08 00:35:27;;;;;;;2.63;1.60;;;14.90;69.90;;;16.38;51.52;97743.41;5030597;28;20416;-55
2023/08/08 00:37:55;;;;;;;2.70;1.55;;;14.90;69.70;;;16.40;51.63;97742.19;5031833;28;20056;-56
2023/08/08 00:40:22;;;;;;;1.75;1.65;;;14.90;69.40;;;16.39;51.64;97743.22;5030135;28;20061;-52
2023/08/08 00:42:50;;;;;;;2.42;1.40;;;14.90;69.70;;;16.43;51.54;97743.66;5031654;28;20046;-57
2023/08/08 00:45:18;;;;;;;2.92;1.95;;;15.00;69.60;;;16.38;51.74;97743.41;5030499;28;20327;-57
2023/08/08 00:47:45;;;;;;;2.42;1.25;;;14.90;69.70;;;16.41;51.54;97735.78;5030141;28;20057;-56
2023/08/08 00:50:14;;;;;;;2.58;1.58;;;14.90;69.90;;;16.39;51.62;97735.16;5030183;28;20041;-55
2023/08/08 00:52:42;;;;;;;1.73;1.38;;;14.90;70.00;;;16.38;51.53;97732.66;5029540;28;20420;-56
2023/08/08 00:55:11;;;;;;;2.38;1.63;;;14.80;70.20;;;16.34;51.71;97733.06;5030239;28;20046;-57
2023/08/08 00:57:40;;;;;;;3.80;1.77;;;14.80;70.30;;;16.36;51.71;97729.34;5013632;28;20049;-57
2023/08/08 01:00:10;;;;;;;1.67;1.30;;;14.90;70.20;;;16.39;51.73;97729.78;5029551;28;20092;-56
2023/08/08 01:02:38;;;;;;;2.28;1.40;;;14.90;70.00;;;16.37;51.80;97731.84;5031432;28;20033;-55
2023/08/08 01:05:07;;;;;;;2.58;1.27;;;14.90;70.40;;;16.39;51.69;97731.66;5046432;28;20056;-55
2023/08/08 01:07:43;;;;;;;1.60;1.30;;;14.90;70.40;;;16.39;51.86;97726.28;5030232;28;20556;-56
2023/08/08 01:10:16;;;;;;;3.03;1.90;;;14.90;70.40;;;16.39;52.01;97724.41;5023103;28;20045;-56
2023/08/08 01:12:54;;;;;;;;;;;14.90;70.30;;;16.40;52.02;97726.09;5030928;28;20045;-55
2023/08/08 01:15:22;;;;;;;1.58;1.30;;;14.90;70.10;;;16.42;51.75;97729.41;5030059;28;19925;-57
2023/08/08 01:17:51;;;;;;;2.05;1.52;;;14.90;70.20;;;16.35;52.12;97731.19;5021594;28;20046;-55
2023/08/08 01:20:22;;;;;;;1.90;1.40;;;14.90;70.20;;;16.39;52.08;97729.78;5046303;28;20058;-54
2023/08/08 01:23:16;;;;;;;3.63;1.58;;;14.90;70.40;;;16.38;52.06;97720.06;5029944;28;20490;-55
2023/08/08 01:25:45;;;;;;;3.08;1.67;;;14.90;70.40;;;16.35;52.13;97728.50;5016403;28;20056;-52
2023/08/08 01:28:13;;;;;;;3.60;1.67;;;14.90;71.00;;;16.32;52.09;97718.16;5029102;28;20045;-57
2023/08/08 01:30:42;;;;;;;3.10;1.40;;;14.80;71.00;;;16.33;52.34;97723.34;5029617;28;20049;-57
2023/08/08 01:33:09;;;;;;;2.00;1.55;;;14.80;71.10;;;16.37;52.27;97713.03;5029763;28;20056;-55
2023/08/08 01:35:51;;;;;;;3.17;1.38;;;14.90;71.00;;;16.39;52.35;97721.72;5021733;28;20057;-56
2023/08/08 01:38:38;;;;;;;2.90;1.60;;;14.90;71.00;;;16.35;52.48;97712.41;5008289;28;20500;-57
2023/08/08 01:41:08;;;;;;;2.03;1.38;;;14.90;71.20;;;16.38;52.12;97713.84;5021829;28;20050;-57
2023/08/08 01:43:39;;;;;;;4.07;1.65;;;14.90;71.20;;;16.43;52.24;97716.78;5030304;28;20505;-57
2023/08/08 01:46:08;;;;;;;3.30;1.73;;;14.90;71.00;;;16.43;52.21;97717.63;5023148;28;20041;-56
2023/08/08 01:48:35;;;;;;;1.98;1.40;;;14.90;70.90;;;16.45;52.03;97712.88;5030742;28;20052;-55
2023/08/08 01:51:03;;;;;;;2.88;1.75;;;14.90;70.80;;;16.48;52.15;97715.19;5045921;28;20394;-56
2023/08/08 01:53:31;;;;;;;3.28;1.52;;;15.00;70.80;;;16.43;52.27;97708.72;5030573;28;20050;-55
2023/08/08 01:55:58;;;;;;;3.85;2.15;;;14.90;70.80;;;16.43;52.05;97719.47;5029332;28;20048;-57
2023/08/08 01:58:26;;;;;;;1.92;1.50;;;14.90;70.80;;;16.41;52.15;97713.47;5029863;28;20435;-56
2023/08/08 02:00:53;;;;;;;2.35;1.52;;;14.90;71.00;;;16.41;52.02;97718.84;5029901;28;20516;-57
2023/08/08 02:03:21;;;;;;;2.05;1.60;;;14.80;71.10;;;16.25;52.23;97719.97;5030388;28;20499;-55
2023/08/08 02:05:49;;;;;;;2.60;1.40;;;14.70;71.70;;;16.27;52.30;97715.25;5034367;28;20050;-55
2023/08/08 02:08:18;;;;;;;2.38;1.20;;;14.70;71.80;;;16.17;52.56;97699.47;5033519;28;20053;-57
2023/08/08 02:10:46;;;;;;;3.45;1.80;;;14.60;71.80;;;16.14;52.68;97703.34;5033176;28;20429;-56
2023/08/08 02:13:14;;;;;;;1.67;1.23;;;14.60;72.20;;;16.18;52.79;97700.28;5033037;28;20097;-57
2023/08/08 02:15:41;;;;;;;2.03;1.63;;;14.60;72.00;;;16.07;52.72;97704.31;5032960;28;20505;-56
2023/08/08 02:18:10;;;;;;;2.95;1.55;;;14.60;72.20;;;16.10;52.56;97699.41;5034133;28;20041;-55
2023/08/08 02:20:38;;;;;;;2.50;1.80;;;14.60;72.00;;;16.10;52.63;97695.91;5032661;28;20041;-55
2023/08/08 02:23:06;;;;;;;2.20;1.52;;;14.60;72.10;;;16.06;52.89;97697.31;5032725;28;20045;-55
2023/08/08 02:25:33;;;;;;;1.75;1.33;;;14.50;72.40;;;16.04;52.83;97697.50;5032962;28;20501;-51
2023/08/08 02:28:01;;;;;;;2.50;1.50;;;14.50;72.70;;;16.05;52.76;97691.13;5032741;28;20064;-55
2023/08/08 02:30:28;;;;;;;3.15;1.40;;;14.50;72.90;;;16.02;52.85;97690.69;5016357;28;20053;-57
2023/08/08 02:32:56;;;;;;;2.08;1.40;;;14.40;73.00;;;15.97;52.95;97691.25;5034167;28;20611;-56
2023/08/08 02:35:26;;;;;;;2.67;1.25;;;14.40;73.20;;;15.99;52.96;97696.41;5033953;28;20290;-54
2023/08/08 02:37:54;;;;;;;2.20;1.50;;;14.40;73.90;;;15.93;52.86;97698.03;5049359;28;20076;-54
2023/08/08 02:40:23;;;;;;;1.88;1.60;;;14.30;73.90;;;15.91;53.22;97692.84;5033970;28;20049;-56
2023/08/08 02:42:51;;;;;;;1.65;1.33;;;14.20;74.00;;;15.87;53.02;97701.50;5032305;28;20528;-57
2023/08/08 02:45:18;;;;;;;2.30;1.73;;;14.20;74.20;;;15.88;53.40;97695.94;5033229;28;20057;-57
2023/08/08 02:47:46;;;;;;;2.55;1.33;;;14.20;74.00;;;15.88;53.19;97697.78;5033662;28;20045;-57
2023/08/08 02:50:14;;;;;;;2.63;1.40;;;14.30;73.80;;;15.87;53.18;97696.94;5025058;28;20045;-54
2023/08/08 02:52:41;;;;;;;1.52;1.23;;;14.30;73.90;;;15.73;53.60;97695.19;5049222;28;20049;-54
2023/08/08 02:55:09;;;;;;;2.55;1.75;;;14.20;74.00;;;15.74;53.60;97696.81;5032398;28;20056;-55
2023/08/08 02:57:38;;;;;;;4.80;1.70;;;14.20;74.20;;;15.71;53.54;97689.16;5015955;28;20042;-55
2023/08/08 03:00:08;;;;;;;1.55;1.33;;;14.20;74.30;;;15.72;53.61;97693.47;5031629;28;20469;-57
2023/08/08 03:02:40;;;;;;;4.60;1.80;;;14.20;74.30;;;15.70;53.50;97690.16;5032916;28;20056;-55
2023/08/08 03:05:08;;;;;;;2.30;1.48;;;14.20;74.40;;;15.72;53.70;97697.00;5032169;28;20061;-57
2023/08/08 03:07:36;;;;;;;2.70;1.80;;;14.20;74.40;;;15.75;53.92;97693.13;5033197;28;20420;-57
2023/08/08 03:10:06;;;;;;;3.67;1.50;;;14.20;75.20;;;15.74;53.51;97684.25;5023329;28;20049;-57
2023/08/08 03:12:34;;;;;;;3.53;1.70;;;14.10;74.40;;;15.69;53.61;97683.13;5031900;28;20394;-55
2023/08/08 03:15:02;;;;;;;1.75;1.55;;;14.10;74.80;;;15.67;53.87;97690.56;5031515;28;20493;-53
2023/08/08 03:17:30;;;;;;;3.63;1.63;;;14.10;74.80;;;15.59;54.08;97686.16;5032713;28;20398;-57
2023/08/08 03:19:58;;;;;;;3.53;1.60;;;14.10;75.00;;;15.58;53.83;97687.16;5031496;28;20542;-57
2023/08/08 03:22:26;;;;;;;2.55;1.40;;;14.10;75.00;;;15.63;54.08;97690.09;5031862;28;20050;-54
2023/08/08 03:24:54;;;;;;;2.95;1.60;;;14.10;74.80;;;15.64;53.82;97697.13;5028563;28;20497;-54
2023/08/08 03:27:22;;;;;;;2.35;1.67;;;14.20;74.60;;;15.54;54.34;97692.06;5033360;28;20049;-57
2023/08/08 03:29:52;;;;;;;2.88;1.80;;;14.10;75.10;;;15.59;54.14;97686.16;5031789;28;20521;-55
2023/08/08 03:32:21;;;;;;;2.17;1.55;;;14.10;75.00;;;15.63;54.18;97689.28;5032495;28;20072;-55
2023/08/08 03:34:49;;;;;;;1.98;1.45;;;14.10;74.80;;;15.62;54.29;97695.66;5048320;28;20049;-54
2023/08/08 03:37:16;;;;;;;2.67;1.73;;;14.10;74.80;;;15.64;54.20;97690.94;5031575;28;20500;-55
2023/08/08 03:39:44;;;;;;;2.20;1.45;;;14.10;75.00;;;15.65;54.12;97693.44;5032634;28;20044;-56
2023/08/08 03:42:12;;;;;;;4.03;1.30;;;14.10;75.10;;;15.69;54.03;97689.34;5032920;28;20045;-57
2023/08/08 03:44:39;;;;;;;4.32;1.77;;;14.20;74.80;;;15.69;54.00;97691.19;5032842;28;20042;-55
2023/08/08 03:47:07;;;;;;;2.55;1.88;;;14.20;74.80;;;15.70;54.25;97690.16;5031524;28;20505;-57
2023/08/08 03:49:46;;;;;;;2.03;1.30;;;14.20;74.70;;;15.74;54.33;97694.13;5031634;28;20414;-54
2023/08/08 03:52:14;;;;;;;2.85;1.90;;;14.20;74.80;;;15.72;54.14;97693.47;5015439;28;20045;-55
2023/08/08 03:54:43;;;;;;;2.42;1.63;;;14.20;74.90;;;15.66;54.48;97692.38;5031062;28;20520;-55
2023/08/08 03:57:11;;;;;;;1.65;1.25;;;14.20;75.10;;;15.71;54.35;97694.50;5030637;28;20042;-56
2023/08/08 03:59:39;;;;;;;2.70;1.50;;;14.20;75.10;;;15.74;54.33;97694.13;5030903;28;20513;-56
2023/08/08 04:02:07;;;;;;;1.90;1.40;;;14.30;74.80;;;15.79;54.29;97690.91;5031293;28;20053;-57
2023/08/08 04:04:34;;;;;;;2.50;1.42;;;14.30;74.70;;;15.79;54.21;97690.91;5031301;28;20513;-57
2023/08/08 04:07:02;;;;;;;2.15;1.25;;;14.30;74.60;;;15.80;54.18;97690.72;5030843;28;20497;-57
2023/08/08 04:09:29;;;;;;;3.40;1.83;;;14.30;74.60;;;15.72;54.29;97694.31;5030807;28;20397;-56
2023/08/08 04:11:57;;;;;;;2.45;2.20;;;14.30;74.80;;;15.75;54.31;97693.94;5032328;28;20039;-53
2023/08/08 04:14:26;;;;;;;2.13;1.40;;;14.30;74.60;;;15.81;54.12;97703.09;5030918;28;20041;-56
2023/08/08 04:16:54;;;;;;;1.83;1.40;;;14.30;74.70;;;15.85;53.83;97701.69;5030554;28;20513;-56
2023/08/08 04:19:23;;;;;;;6.05;1.70;;;14.40;74.40;;;15.89;53.86;97689.53;5023866;28;20042;-55
2023/08/08 04:21:50;;;;;;;5.03;1.70;;;14.40;74.50;;;15.88;54.06;97695.13;5032288;28;20046;-57
2023/08/08 04:24:18;;;;;;;2.00;1.55;;;14.30;74.60;;;15.88;54.00;97695.94;5031963;28;20042;-54
2023/08/08 04:26:46;;;;;;;2.50;1.40;;;14.30;74.50;;;15.88;54.05;97700.47;5030249;28;20050;-55
2023/08/08 04:29:13;;;;;;;3.60;1.45;;;14.40;74.60;;;15.90;53.84;97706.50;5031403;28;20045;-56
2023/08/08 04:31:41;;;;;;;2.17;1.42;;;14.40;74.50;;;15.89;53.93;97702.94;5030873;28;20053;-54
2023/08/08 04:34:09;;;;;;;1.95;1.30;;;14.40;74.60;;;15.91;53.99;97705.44;5031901;28;20045;-56
2023/08/08 04:36:37;;;;;;;2.80;1.67;;;14.40;74.60;;;15.86;53.93;97699.84;5031537;28;20417;-55
2023/08/08 04:39:04;;;;;;;2.30;1.75;;;14.30;74.80;;;15.83;53.94;97701.03;5031288;28;20056;-55
2023/08/08 04:41:32;;;;;;;2.03;1.40;;;14.30;74.90;;;15.73;54.39;97706.75;5031867;28;20037;-55
2023/08/08 04:43:59;;;;;;;2.03;1.42;;;14.30;75.20;;;15.78;54.25;97698.13;5031681;28;20048;-55
2023/08/08 04:46:27;;;;;;;2.00;1.40;;;14.30;75.30;;;15.78;54.24;97694.59;5031771;28;20541;-55
2023/08/08 04:48:55;;;;;;;1.90;1.15;;;14.30;75.20;;;15.77;54.44;97693.78;5031184;28;20052;-53
2023/08/08 04:51:25;;;;;;;4.40;1.65;;;14.30;75.10;;;15.74;54.40;97697.69;5023666;28;20045;-55
2023/08/08 04:53:52;;;;;;;2.05;1.30;;;14.30;75.30;;;15.74;54.38;97697.69;5032387;28;20048;-50
2023/08/08 04:56:20;;;;;;;5.53;3.17;;;14.30;75.40;;;15.75;54.62;97702.00;5030325;28;20413;-54
2023/08/08 04:58:48;;;;;;;2.65;1.60;;;14.30;75.50;;;15.82;54.30;97706.59;5031445;28;20397;-52
2023/08/08 05:01:17;;;;;;;3.00;2.10;;;14.30;75.20;;;15.74;54.56;97695.00;5031234;28;20060;-54
2023/08/08 05:03:45;;;;;;;4.70;1.60;;;14.30;75.50;;;15.68;54.74;97701.09;5031390;28;20042;-50
2023/08/08 05:06:13;;;;;;;1.85;1.40;;;14.20;75.80;;;15.69;54.71;97693.88;5031310;28;20046;-54
2023/08/08 05:08:40;;;;;;;1.95;1.40;;;14.20;75.80;;;15.71;54.71;97695.34;5029728;28;20524;-56
2023/08/08 05:11:08;;;;;;;1.98;1.40;;;14.20;75.80;;;15.72;54.64;97704.22;5031226;28;20045;-56
2023/08/08 05:13:36;;;;;;;5.25;1.55;;;14.30;75.90;;;15.69;54.84;97697.38;5031534;28;20045;-53
2023/08/08 05:16:03;;;;;;;2.22;1.58;;;14.20;76.00;;;15.70;54.78;97698.19;5031080;28;20408;-58
2023/08/08 05:18:31;;;;;;;4.03;1.55;;;14.20;76.00;;;15.66;54.94;97705.81;5031173;28;20523;-56
2023/08/08 05:20:58;;;;;;;3.40;1.50;;;14.20;76.10;;;15.67;54.95;97710.16;5031145;28;20409;-56
2023/08/08 05:23:26;;;;;;;2.45;1.50;;;14.20;77.10;;;15.70;54.89;97712.47;5029616;28;20524;-59
2023/08/08 05:25:53;;;;;;;2.60;1.60;;;14.20;76.30;;;15.71;55.18;97714.13;5031209;28;20057;-59
2023/08/08 05:28:21;;;;;;;3.72;1.60;;;14.30;76.20;;;15.72;55.01;97707.75;5029689;28;20061;-57
2023/08/08 05:30:49;;;;;;;2.42;1.58;;;14.30;76.50;;;15.70;55.02;97709.78;5030011;28;20489;-57
2023/08/08 05:33:17;;;;;;;3.03;1.80;;;14.30;76.60;;;15.76;55.20;97718.97;5029894;28;20049;-57
2023/08/08 05:35:44;;;;;;;1.60;1.48;;;14.30;76.50;;;15.83;54.99;97709.09;5031097;28;20037;-57
2023/08/08 05:38:12;;;;;;;2.60;1.55;;;14.40;76.30;;;15.84;54.95;97709.91;5031101;28;20045;-57
2023/08/08 05:40:39;;;;;;;3.60;1.60;;;14.40;76.30;;;15.89;55.09;97713.69;5033324;28;20041;-58
2023/08/08 05:43:08;;;;;;;6.72;2.08;;;14.50;76.30;;;15.92;55.03;97707.13;5035112;28;20489;-56
2023/08/08 05:45:35;;;;;;;2.55;1.13;;;14.50;76.20;;;15.97;55.24;97703.84;5034189;28;20045;-58
2023/08/08 05:48:03;;;;;;;2.95;1.67;;;14.60;75.90;;;16.01;55.16;97710.47;5034870;28;20048;-56
2023/08/08 05:50:31;;;;;;;2.25;1.80;;;14.60;75.70;;;16.04;55.12;97713.63;5024943;28;20041;-59
2023/08/08 05:52:58;;;;;;;3.58;1.48;;;14.70;75.80;;;16.05;55.04;97707.22;5033820;28;20037;-57
2023/08/08 05:55:26;;;;;;;3.17;1.42;;;14.70;75.70;;;16.07;55.02;97701.66;5034825;28;20389;-57
2023/08/08 05:57:54;;;;;;;3.95;1.70;;;14.80;75.50;;;16.08;55.08;97711.38;5034865;28;20052;-61
2023/08/08 06:00:22;;;;;;;2.40;1.27;;;14.80;75.70;;;16.13;55.07;97714.31;5034502;28;20048;-58
2023/08/08 06:02:50;;;;;;;3.40;1.58;;;14.80;75.60;;;16.19;55.18;97718.06;5033988;28;20416;-58
2023/08/08 06:05:18;;;;;;;3.58;1.60;;;14.90;75.60;;;16.27;55.06;97713.38;5034658;28;20041;-60
2023/08/08 06:07:46;;;;;;;2.95;1.60;;;14.90;75.30;;;16.33;54.78;97720.66;5034470;28;20045;-58
2023/08/08 06:10:13;;;;;;;3.45;2.47;;;15.00;75.10;;;16.34;54.96;97725.00;5034164;28;20045;-57
2023/08/08 06:12:41;;;;;;;2.50;1.90;;;15.00;74.80;;;16.40;54.74;97714.47;5034423;28;20059;-59
2023/08/08 06:15:09;;;;;;;2.15;1.33;;;15.10;74.50;;;16.44;54.91;97711.22;5034467;28;20052;-59
2023/08/08 06:17:37;;;;;;;3.42;1.35;;;15.20;74.80;;;16.51;54.81;97717.44;5034643;28;20041;-59
2023/08/08 06:20:06;;;;;;;2.15;1.60;;;15.30;74.60;;;16.51;54.76;97722.81;5034154;28;20042;-58
2023/08/08 06:22:34;;;;;;;4.30;1.77;;;15.30;73.80;;;16.60;54.67;97718.13;5026669;28;20041;-56
2023/08/08 06:25:03;;;;;;;1.92;1.50;;;15.40;74.10;;;16.63;54.66;97716.91;5031285;28;20046;-58
2023/08/08 06:27:30;;;;;;;2.95;1.70;;;15.50;74.00;;;16.65;54.68;97722.91;5033383;28;20047;-59
2023/08/08 06:29:58;;;;;;;2.17;1.35;;;15.50;73.20;;;16.72;54.39;97721.09;5033930;28;20520;-59
2023/08/08 06:32:27;;;;;;;2.78;1.50;;;15.60;72.80;;;16.64;54.38;97722.09;5033098;28;20050;-59
2023/08/08 06:34:55;;;;;;;1.52;1.20;;;15.60;72.50;;;16.69;54.31;97719.66;5034321;28;20416;-58
2023/08/08 06:37:22;;;;;;;2.67;1.50;;;15.60;72.60;;;16.79;54.15;97715.75;5033721;28;20053;-59
2023/08/08 06:39:50;;;;;;;1.95;1.50;;;15.70;72.60;;;16.84;54.08;97724.91;5033557;28;20049;-59
2023/08/08 06:42:17;;;;;;;2.05;1.60;;;15.70;72.30;;;16.83;54.14;97717.06;5034011;28;20044;-58
2023/08/08 06:44:55;;;;;;;2.45;1.63;;;15.70;71.90;;;16.81;53.95;97727.13;5033138;28;20501;-59
2023/08/08 06:47:22;;;;;;;1.67;1.40;;;15.70;71.60;;;16.86;53.81;97724.72;5033671;28;20057;-59
2023/08/08 06:49:50;;;;;;;2.17;1.70;;;15.80;71.60;;;16.91;53.81;97722.25;5032554;28;20047;-58
2023/08/08 06:52:18;;;;;;;1.98;1.60;;;15.80;71.30;;;16.97;53.82;97718.78;5033642;28;20417;-59
2023/08/08 06:54:45;;;;;;;2.47;1.60;;;15.90;71.10;;;17.07;53.51;97715.72;5034004;28;20052;-59
2023/08/08 06:57:13;;;;;;;2.70;1.70;;;16.00;71.30;;;17.09;53.44;97719.84;5033312;28;20034;-59
2023/08/08 06:59:41;;;;;;;1.77;1.35;;;16.00;70.70;;;17.16;53.46;97716.34;5033283;28;20044;-58
2023/08/08 07:02:09;;;;;;;2.40;1.60;;;16.00;70.70;;;17.13;53.12;97715.72;5033619;28;20500;-59
2023/08/08 07:04:37;;;;;;;3.88;1.50;;;16.10;70.10;;;17.24;53.09;97713.50;5025563;28;20398;-59
2023/08/08 07:07:05;;;;;;;2.80;1.20;;;16.20;70.10;;;17.35;52.99;97720.13;5033736;28;20068;-58
2023/08/08 07:09:33;;;;;;;1.70;1.48;;;16.20;70.30;;;17.40;52.60;97723.06;5032959;28;20045;-59
2023/08/08 07:12:00;;;;;;;4.72;1.50;;;16.20;69.60;;;17.45;52.70;97726.81;5033532;28;20052;-60
2023/08/08 07:14:29;;;;;;;2.40;1.52;;;16.30;69.50;;;17.41;52.64;97722.88;5032527;28;20056;-59
2023/08/08 07:16:56;;;;;;;1.60;1.50;;;16.30;68.80;;;17.39;52.37;97718.69;5032271;28;20046;-59
2023/08/08 07:19:24;;;;;;;1.38;1.23;;;16.30;68.20;;;17.47;52.01;97715.84;5032865;28;20049;-59
2023/08/08 07:21:52;;;;;;;2.67;1.20;;;16.30;67.70;;;17.50;51.96;97715.41;5033541;28;20029;-60
2023/08/08 07:24:20;;;;;;;1.80;1.30;;;16.40;67.70;;;17.53;52.08;97715.03;5032107;28;20038;-60
2023/08/08 07:26:48;;;;;;;2.60;1.45;;;16.40;67.90;;;17.60;52.09;97701.56;5033109;28;20224;-60
2023/08/08 07:29:16;;;;;;;2.13;1.13;;;16.50;67.90;;;17.63;52.11;97702.00;5032100;28;20551;-58
2023/08/08 07:31:44;;;;;;;3.00;1.55;;;16.50;68.60;;;17.69;52.01;97703.03;5031873;28;20046;-59
2023/08/08 07:34:11;;;;;;;1.35;1.20;;;16.60;68.50;;;17.58;50.38;97701.75;5033085;28;20504;-60
2023/08/08 07:36:39;;;;;;;3.78;2.05;;;16.60;63.40;;;17.63;50.52;97709.25;5032916;28;20516;-58
2023/08/08 07:39:06;;;;;;;3.47;1.40;;;16.70;64.30;;;17.74;50.20;97708.66;5032755;28;20519;-57
2023/08/08 07:41:34;;;;;;;3.08;1.95;;;16.90;62.60;;;17.92;50.10;97699.97;5032898;28;20052;-59
2023/08/08 07:44:02;;;;;;;2.63;2.10;;;17.00;62.50;;;18.01;49.72;97701.44;5032840;28;20053;-58
2023/08/08 07:46:30;;;;;;;2.80;1.50;;;17.20;62.40;;;18.06;49.78;97698.13;5032772;28;20053;-59
2023/08/08 07:49:02;;;;;;;1.88;1.17;;;17.30;62.40;;;18.14;49.93;97697.91;5032587;28;20512;-57
2023/08/08 07:51:30;;;;;;;1.90;1.40;;;17.50;62.70;;;18.22;49.31;97694.16;5032052;28;20072;-59
2023/08/08 07:53:59;;;;;;;1.67;1.10;;;17.50;61.50;;;18.34;48.78;97697.91;5031071;28;20045;-59
2023/08/08 07:56:26;;;;;;;1.98;1.42;;;17.50;60.70;;;18.38;48.67;97692.88;5031636;28;20413;-59
2023/08/08 07:58:54;;;;;;;3.47;1.20;;;17.50;61.40;;;18.39;48.53;97703.47;5032268;28;20425;-59
2023/08/08 08:01:22;;;;;;;1.85;1.50;;;17.50;61.00;;;18.50;48.27;97702.00;5032410;28;20041;-59
2023/08/08 08:03:49;;;;;;;1.65;1.35;;;17.50;60.40;;;18.48;47.83;97698.69;5032457;28;20217;-59
2023/08/08 08:06:17;;;;;;;3.13;1.40;;;17.60;59.70;;;18.55;47.74;97695.97;5032414;28;20512;-59
2023/08/08 08:08:45;;;;;;;2.15;1.33;;;17.60;59.50;;;18.67;47.94;97694.31;5032221;28;20037;-59
2023/08/08 08:11:16;;;;;;;2.08;1.30;;;17.70;60.30;;;18.68;47.72;97690.56;5032317;28;20049;-59
2023/08/08 08:13:44;;;;;;;1.35;1.23;;;17.70;60.20;;;18.70;47.31;97689.28;5032409;28;20393;-59
2023/08/08 08:16:11;;;;;;;2.78;1.30;;;17.70;58.70;;;18.78;47.07;97687.41;5032234;28;20051;-59
2023/08/08 08:18:39;;;;;;;1.80;1.30;;;17.80;59.00;;;18.78;46.78;97685.53;5031818;28;20493;-59
2023/08/08 08:21:07;;;;;;;2.15;1.52;;;17.80;58.10;;;18.79;45.69;97686.38;5032023;28;20044;-59
2023/08/08 08:23:34;;;;;;;3.13;1.40;;;17.80;56.20;;;18.79;46.08;97695.28;5032152;28;20046;-59
2023/08/08 08:26:02;;;;;;;1.80;1.35;;;17.80;57.20;;;18.85;46.11;97688.25;5032127;28;20512;-59
2023/08/08 08:28:29;;;;;;;4.15;1.70;;;17.80;57.90;;;18.81;45.96;97690.53;5031805;28;20044;-59
2023/08/08 08:30:57;;;;;;;3.97;1.40;;;17.80;56.30;;;18.79;46.24;97686.38;5030847;28;20045;-59
2023/08/08 08:33:25;;;;;;;2.65;1.38;;;17.80;57.40;;;18.74;45.78;97689.69;5030689;28;20049;-59
2023/08/08 08:35:52;;;;;;;2.08;1.50;;;17.90;55.70;;;18.76;44.60;97695.72;5031877;28;20417;-59
2023/08/08 08:38:20;;;;;;;3.97;1.50;;;17.90;54.50;;;18.88;45.42;97687.81;5030347;28;20045;-59
2023/08/08 08:40:48;;;;;;;2.58;1.08;;;18.00;56.20;;;18.97;45.53;97689.25;5023583;28;20045;-59
2023/08/08 08:43:16;;;;;;;3.85;1.52;;;18.00;56.40;;;19.03;45.65;97698.34;5030547;28;20045;-59
2023/08/08 08:45:52;;;;;;;2.60;1.33;;;18.10;56.80;;;18.92;45.10;97690.91;5014183;28;20041;-59
2023/08/08 08:48:21;;;;;;;1.75;1.23;;;18.20;55.00;;;18.83;45.04;97687.66;5014077;28;20049;-59
2023/08/08 08:50:49;;;;;;;3.33;1.48;;;18.10;55.00;;;18.91;45.53;97681.19;5022215;28;20068;-59
2023/08/08 08:53:17;;;;;;;3.40;1.33;;;18.10;56.40;;;18.99;45.72;97689.03;5030556;28;20041;-59
2023/08/08 08:55:47;;;;;;;2.50;1.30;;;18.20;56.40;;;19.03;45.85;97682.16;5031543;28;20049;-59
2023/08/08 08:58:18;;;;;;;2.72;1.60;;;18.20;56.70;;;19.21;46.01;97676.91;5030266;28;20045;-59
2023/08/08 09:00:47;;;;;;;2.00;1.38;;;18.40;56.80;;;19.24;44.85;97681.03;5031026;28;20449;-59
2023/08/08 09:03:16;;;;;;;2.03;1.20;;;18.40;54.40;;;19.35;45.27;97674.09;5030164;28;20045;-59
2023/08/08 09:05:45;;;;;;;2.38;1.38;;;18.50;55.90;;;19.46;44.62;97676.09;5030294;28;20049;-60
2023/08/08 09:08:12;;;;;;;2.55;1.50;;;18.50;54.30;;;19.33;44.54;97674.34;5030066;28;20493;-59
2023/08/08 09:10:40;;;;;;;2.28;0.95;;;18.50;54.40;;;19.43;44.41;97677.38;5030779;28;20045;-59
2023/08/08 09:13:08;;;;;;;3.38;1.30;;;18.60;55.70;;;19.44;44.47;97670.09;5030997;28;20044;-59
2023/08/08 09:15:36;;;;;;;1.73;1.10;;;18.70;53.70;;;19.53;44.21;97662.59;5030147;28;20056;-59
2023/08/08 09:18:03;;;;;;;2.35;1.50;;;18.80;53.60;;;19.51;44.95;97670.06;5046714;28;20041;-59
2023/08/08 09:20:32;;;;;;;2.67;1.40;;;18.90;55.30;;;19.69;44.73;97664.75;5030837;28;20041;-59
2023/08/08 09:22:59;;;;;;;2.60;1.52;;;19.00;54.90;;;19.63;44.03;97671.03;5029619;28;20413;-59
2023/08/08 09:25:27;;;;;;;2.17;1.30;;;19.00;53.30;;;19.58;44.14;97682.50;5030842;28;20045;-59
2023/08/08 09:27:55;;;;;;;3.90;1.40;;;18.80;53.60;;;19.62;43.99;97666.69;5027555;28;20048;-60
2023/08/08 09:30:23;;;;;;;3.08;1.55;;;18.90;54.10;;;19.68;44.11;97666.63;5021156;28;20053;-60
2023/08/08 09:32:50;;;;;;;1.88;1.30;;;18.80;53.40;;;19.60;43.33;97661.50;5030819;28;20037;-59
2023/08/08 09:35:18;;;;;;;2.33;1.30;;;18.90;52.00;;;19.61;43.93;97649.63;5031064;28;20046;-61
2023/08/08 09:37:46;;;;;;;3.33;1.30;;;19.00;53.70;;;19.72;43.03;97653.53;5030966;28;20058;-59
2023/08/08 09:40:14;;;;;;;2.05;1.45;;;19.00;52.10;;;19.68;43.37;97653.13;5030643;28;20037;-59
2023/08/08 09:42:42;;;;;;;1.95;1.20;;;19.10;52.80;;;19.71;43.32;97648.31;5030873;28;20516;-59
2023/08/08 09:45:10;;;;;;;3.90;1.98;;;19.10;52.70;;;19.76;42.71;97646.66;5031012;28;20064;-59
2023/08/08 09:47:38;;;;;;;2.92;1.42;;;19.10;51.80;;;19.90;43.46;97643.84;5030850;28;20045;-59
2023/08/08 09:50:07;;;;;;;2.97;1.65;;;19.10;52.80;;;19.86;43.13;97652.38;5030450;28;20057;-59
2023/08/08 09:52:38;;;;;;;2.55;1.25;;;19.20;52.70;;;19.97;42.88;97644.63;5029802;28;20481;-60
2023/08/08 09:55:07;;;;;;;2.10;1.50;;;19.20;51.60;;;19.99;42.61;97645.22;5031335;28;20406;-60
2023/08/08 09:57:37;;;;;;;1.95;1.48;;;19.30;51.80;;;20.02;42.92;97640.19;5030360;28;20493;-60
2023/08/08 10:00:15;;;;;;;3.47;1.40;;;19.40;51.70;;;20.17;42.06;97639.03;5029356;28;20489;-60
2023/08/08 10:02:46;;;;;;;2.05;1.48;;;19.40;50.90;;;20.16;41.73;97638.22;5030841;28;20045;-60
2023/08/08 10:05:15;;;;;;;4.55;1.42;;;19.50;50.80;;;20.33;41.45;97646.53;5031093;28;20037;-60
2023/08/08 10:07:43;;;;;;;2.10;1.38;;;19.60;50.40;;;20.45;41.56;97650.19;5030721;28;20057;-60
2023/08/08 10:10:11;;;;;;;1.63;1.15;;;19.60;49.70;;;20.38;40.30;97638.59;5030422;28;20507;-59
2023/08/08 10:12:41;;;;;;;2.75;1.30;;;19.60;47.50;;;20.42;39.84;97639.81;5030650;28;20073;-58
2023/08/08 10:15:10;;;;;;;3.22;1.70;;;19.80;46.60;;;20.60;40.42;97639.00;5030889;28;20049;-59
2023/08/08 10:17:39;;;;;;;3.15;1.42;;;19.80;48.90;;;20.51;37.98;97644.91;5030689;28;20050;-59
2023/08/08 10:20:11;;;;;;;2.13;1.35;;;19.90;44.80;;;20.42;37.34;97644.38;5028888;28;20049;-59
2023/08/08 10:22:45;;;;;;;1.30;1.13;;;19.90;42.60;;;20.39;37.48;97652.94;5030579;28;20048;-59
2023/08/08 10:25:29;;;;;;;3.22;1.40;;;19.80;42.40;;;20.53;38.02;97650.91;5032804;28;20042;-60